Time;durP1;ratioP1;P1;durP2;ratioP2;P2;SDS_P1;SDS_P2;PMS_P1;PMS_P2;Temp;Humidity;BMP_temperature;BMP_pressure;BME280_temperature;BME280_humidity;BME280_pressure;Samples;Min_cycle;Max_cycle;Signal;HPM_P1;HPM_P2
2021/12/01 00:00:58;;;;;;;6.93;4.23;;;;;;;0.64;85.77;100292.75;5053016;28;20086;-74
2021/12/01 00:03:23;;;;;;;6.60;4.30;;;;;;;0.58;85.14;100299.06;5053420;28;20029;-71
2021/12/01 00:05:50;;;;;;;7.73;4.20;;;;;;;0.57;85.61;100274.41;5052774;28;20032;-76
2021/12/01 00:08:16;;;;;;;7.17;4.50;;;;;;;0.82;85.47;100302.50;5053123;28;20107;-74
2021/12/01 00:10:42;;;;;;;5.77;4.10;;;;;;;0.85;84.79;100304.38;5053219;28;20754;-70
2021/12/01 00:13:10;;;;;;;6.67;4.30;;;;;;;0.83;83.76;100314.44;5053350;28;20113;-74
2021/12/01 00:15:37;;;;;;;6.55;4.10;;;;;;;0.92;84.24;100319.31;5052616;28;20025;-71
2021/12/01 00:18:02;;;;;;;6.53;4.17;;;;;;;1.02;83.47;100319.19;5053161;28;20040;-71
2021/12/01 00:20:28;;;;;;;7.20;4.37;;;;;;;1.02;83.28;100319.19;5042097;28;20461;-74
2021/12/01 00:22:55;;;;;;;7.60;4.77;;;;;;;1.08;82.87;100316.22;5032234;28;20033;-70
2021/12/01 00:25:23;;;;;;;6.03;4.23;;;;;;;0.87;83.93;100315.56;5049522;28;20128;-70
2021/12/01 00:27:52;;;;;;;6.50;4.67;;;;;;;0.66;84.57;100300.53;5050300;28;20060;-70
2021/12/01 00:30:19;;;;;;;6.95;4.18;;;;;;;0.55;84.96;100329.28;5049875;28;20068;-70
2021/12/01 00:32:45;;;;;;;6.87;4.20;;;;;;;0.39;86.25;100332.38;5052911;28;20482;-71
2021/12/01 00:35:11;;;;;;;7.13;4.33;;;;;;;0.36;86.56;100316.88;5049702;28;20036;-69
2021/12/01 00:37:38;;;;;;;7.87;4.33;;;;;;;0.31;86.25;100324.16;5049590;28;20032;-71
2021/12/01 00:40:08;;;;;;;7.43;4.37;;;;;;;0.38;85.56;100326.38;5048368;28;20048;-72
2021/12/01 00:42:34;;;;;;;6.70;4.20;;;;;;;0.20;86.13;100285.28;5050586;28;20033;-72
2021/12/01 00:45:06;;;;;;;7.03;4.10;;;;;;;0.18;85.08;100265.63;5049327;28;20601;-69
2021/12/01 00:50:25;;;;;;;6.83;4.67;;;;;;;0.61;85.51;100320.50;5049113;28;20480;-73
2021/12/01 00:52:56;;;;;;;8.07;5.87;;;;;;;0.71;85.28;100316.97;5049044;28;20021;-70
2021/12/01 00:55:23;;;;;;;7.47;5.93;;;;;;;0.82;84.07;100327.91;5047279;28;20483;-73
2021/12/01 00:57:50;;;;;;;8.47;4.50;;;;;;;0.78;84.47;100321.72;5031728;28;20024;-73
2021/12/01 01:00:17;;;;;;;8.20;4.60;;;;;;;0.72;86.02;100311.09;5031601;28;20108;-73
2021/12/01 01:02:43;;;;;;;5.60;3.97;;;;;;;0.79;85.70;100307.38;5031192;28;20032;-73
2021/12/01 01:05:10;;;;;;;6.77;4.07;;;;;;;0.84;84.91;100302.63;5031617;28;20446;-73
2021/12/01 01:07:35;;;;;;;5.53;3.73;;;;;;;0.70;84.57;100299.97;5030069;28;20094;-72
2021/12/01 01:10:17;;;;;;;8.83;4.83;;;;;;;0.53;85.07;100291.09;5031318;28;20112;-73
2021/12/01 01:18:13;;;;;;;7.50;4.23;;;;;;;0.14;86.60;100288.22;5030666;28;20037;-71
2021/12/01 01:20:39;;;;;;;6.00;3.93;;;;;;;0.14;87.11;100298.38;5048418;28;20029;-71
2021/12/01 01:23:04;;;;;;;6.60;4.73;;;;;;;0.00;87.34;100296.47;5048769;28;20043;-72
2021/12/01 01:25:31;;;;;;;6.67;4.33;;;;;;;-0.30;87.73;100277.22;5048804;28;20120;-69
2021/12/01 01:27:56;;;;;;;5.90;3.90;;;;;;;-0.33;88.66;100291.44;5048738;28;20021;-69
2021/12/01 01:30:22;;;;;;;7.77;4.30;;;;;;;-0.28;88.72;100281.66;5015168;28;20071;-72
2021/12/01 01:32:47;;;;;;;9.00;5.60;;;;;;;-0.24;88.39;100293.78;5048803;28;20044;-69
2021/12/01 01:35:13;;;;;;;6.10;3.70;;;;;;;-0.28;88.34;100283.31;5050831;28;20087;-71
2021/12/01 01:37:39;;;;;;;8.73;4.43;;;;;;;-0.36;88.15;100290.34;5048466;28;20121;-72
2021/12/01 01:40:06;;;;;;;6.50;4.03;;;;;;;-0.36;88.19;100282.72;5048328;28;20052;-72
2021/12/01 01:42:31;;;;;;;7.03;4.00;;;;;;;-0.23;85.98;100279.47;5048865;28;20027;-70
2021/12/01 01:44:57;;;;;;;15.10;4.67;;;;;;;-0.17;86.06;100285.88;5048962;28;20033;-69
2021/12/01 01:47:22;;;;;;;7.47;4.60;;;;;;;-0.24;86.72;100268.41;5048668;28;20051;-77
2021/12/01 01:49:57;;;;;;;7.73;4.40;;;;;;;-0.51;86.89;100208.88;5032089;28;20047;-71
2021/12/01 01:52:23;;;;;;;6.93;4.20;;;;;;;-0.01;87.34;100271.84;4983730;28;20048;-76
2021/12/01 01:54:48;;;;;;;6.53;4.00;;;;;;;-0.19;86.80;100218.94;5030253;28;20030;-71
2021/12/01 01:57:14;;;;;;;5.17;3.80;;;;;;;-0.02;86.83;100267.53;5039347;28;20103;-75
2021/12/01 01:59:39;;;;;;;5.40;4.10;;;;;;;-0.07;87.09;100262.09;5050313;28;20447;-75
2021/12/01 02:02:05;;;;;;;6.83;4.40;;;;;;;-0.06;87.31;100261.34;5032933;28;20028;-74
2021/12/01 02:04:33;;;;;;;5.77;3.80;;;;;;;-0.31;87.22;100212.03;5031052;28;20029;-71
2021/12/01 02:07:01;;;;;;;7.30;4.40;;;;;;;-0.25;87.93;100242.94;5031303;28;20029;-76
2021/12/01 02:09:27;;;;;;;6.47;4.17;;;;;;;-0.42;88.52;100245.06;5030991;28;20021;-75
2021/12/01 02:11:57;;;;;;;7.37;4.17;;;;;;;-0.47;89.34;100240.41;5031644;28;20144;-67
2021/12/01 02:14:23;;;;;;;6.25;4.28;;;;;;;-0.55;89.58;100239.81;5012337;28;20041;-73
2021/12/01 02:16:49;;;;;;;7.37;4.20;;;;;;;-0.64;89.48;100239.13;5031088;28;20037;-72
2021/12/01 02:19:15;;;;;;;6.33;4.23;;;;;;;-0.52;89.84;100232.47;5031159;28;20052;-70
2021/12/01 02:21:41;;;;;;;6.63;3.37;;;;;;;-0.34;86.62;100232.97;5031178;28;20476;-73
2021/12/01 02:24:12;;;;;;;5.50;3.50;;;;;;;-0.57;85.93;100168.72;5011009;28;20039;-76
2021/12/01 02:26:40;;;;;;;8.03;3.83;;;;;;;-0.23;85.00;100206.75;5030352;28;20483;-75
2021/12/01 02:29:10;;;;;;;4.80;3.30;;;;;;;-0.03;84.00;100220.06;5034863;28;20029;-74
2021/12/01 02:31:36;;;;;;;6.10;4.40;;;;;;;0.01;84.18;100222.06;5034662;28;20057;-74
2021/12/01 02:34:05;;;;;;;6.33;3.70;;;;;;;0.11;84.17;100223.66;5034151;28;20488;-74
2021/12/01 02:36:31;;;;;;;5.33;3.70;;;;;;;0.12;83.62;100216.13;5034628;28;20029;-75
2021/12/01 02:38:57;;;;;;;8.53;4.13;;;;;;;0.17;83.89;100215.63;5034616;28;20061;-71
2021/12/01 02:41:31;;;;;;;7.97;4.43;;;;;;;0.17;83.95;100191.09;5034876;28;20064;-76
2021/12/01 02:43:59;;;;;;;7.47;4.07;;;;;;;-0.07;84.67;100178.34;5034191;28;20075;-75
2021/12/01 02:46:25;;;;;;;9.33;4.53;;;;;;;-0.12;86.24;100186.41;5035185;28;20025;-71
2021/12/01 02:48:51;;;;;;;6.70;4.93;;;;;;;0.01;86.63;100203.44;5034128;28;20017;-74
2021/12/01 02:51:19;;;;;;;5.97;4.03;;;;;;;-0.07;86.10;100208.81;5035127;28;20032;-74
2021/12/01 02:53:45;;;;;;;8.87;5.03;;;;;;;0.03;86.40;100224.75;5033860;28;20022;-75
2021/12/01 02:56:11;;;;;;;6.73;4.40;;;;;;;-0.21;88.03;100220.47;5034566;28;20037;-73
2021/12/01 02:58:42;;;;;;;6.40;4.73;;;;;;;-0.13;88.13;100238.78;5034557;28;20029;-69
2021/12/01 03:01:14;;;;;;;8.00;4.93;;;;;;;-0.12;88.40;100232.97;5034845;28;20029;-72
2021/12/01 03:03:40;;;;;;;7.10;4.23;;;;;;;-0.08;87.46;100247.63;5017209;28;20038;-70
2021/12/01 03:06:07;;;;;;;9.73;6.47;;;;;;;-0.04;87.52;100253.84;5015809;28;20045;-72
2021/12/01 03:08:34;;;;;;;8.57;5.07;;;;;;;0.03;87.38;100266.22;5033942;28;20041;-70
2021/12/01 03:10:59;;;;;;;8.20;5.43;;;;;;;-0.13;87.30;100235.38;5034393;28;20036;-72
2021/12/01 03:13:26;;;;;;;6.83;4.70;;;;;;;-0.22;88.07;100205.13;5034891;28;20033;-71
2021/12/01 03:15:52;;;;;;;8.13;5.27;;;;;;;0.11;88.60;100241.41;5034820;28;20063;-68
2021/12/01 03:18:17;;;;;;;8.57;5.50;;;;;;;0.27;87.26;100245.97;5034453;28;20119;-69
2021/12/01 03:20:43;;;;;;;8.50;5.30;;;;;;;0.28;85.52;100243.56;5034430;28;20510;-68
2021/12/01 03:23:10;;;;;;;9.93;6.07;;;;;;;0.22;85.78;100237.16;5034092;28;20026;-71
2021/12/01 03:25:36;;;;;;;7.87;4.90;;;;;;;0.29;84.66;100247.00;5034182;28;20116;-68
2021/12/01 03:28:02;;;;;;;8.43;5.47;;;;;;;0.22;84.32;100255.78;5034346;28;20172;-67
2021/12/01 03:30:33;;;;;;;8.23;5.10;;;;;;;0.18;85.23;100265.63;5034280;28;20040;-69
2021/12/01 03:33:00;;;;;;;7.40;5.03;;;;;;;0.10;85.74;100253.22;5033979;28;20029;-71
2021/12/01 03:35:25;;;;;;;6.80;4.10;;;;;;;0.18;86.49;100268.16;5034009;28;20041;-70
2021/12/01 03:37:51;;;;;;;6.27;3.70;;;;;;;-0.12;84.31;100219.41;5033786;28;20030;-69
2021/12/01 03:40:16;;;;;;;5.87;3.80;;;;;;;0.18;84.27;100252.94;5032918;28;20063;-69
2021/12/01 03:42:44;;;;;;;5.87;3.77;;;;;;;0.24;83.91;100253.38;5033698;28;20060;-66
2021/12/01 03:45:11;;;;;;;6.67;4.27;;;;;;;0.25;84.66;100255.13;5033792;28;20030;-69
2021/12/01 03:47:36;;;;;;;6.90;4.87;;;;;;;0.11;85.73;100262.63;5033558;28;20039;-72
2021/12/01 03:50:02;;;;;;;6.67;4.57;;;;;;;0.18;85.56;100263.09;5033331;28;20411;-70
2021/12/01 03:52:28;;;;;;;8.03;5.10;;;;;;;0.01;86.01;100237.28;5033654;28;20046;-73
2021/12/01 03:54:53;;;;;;;7.30;4.57;;;;;;;-0.14;86.73;100205.72;5033531;28;20112;-75
2021/12/01 03:57:20;;;;;;;6.37;4.20;;;;;;;0.10;85.89;100257.41;5033485;28;20045;-70
2021/12/01 03:59:46;;;;;;;8.23;4.43;;;;;;;0.19;85.98;100252.13;5033402;28;20384;-71
2021/12/01 04:02:12;;;;;;;6.47;3.70;;;;;;;0.11;84.99;100233.78;5033295;28;20514;-71
2021/12/01 04:04:37;;;;;;;6.97;4.20;;;;;;;-0.12;85.08;100201.63;5033177;28;20068;-74
2021/12/01 04:07:03;;;;;;;6.37;4.10;;;;;;;0.26;84.88;100255.28;5033047;28;20029;-76
2021/12/01 04:09:30;;;;;;;7.00;4.40;;;;;;;0.14;84.87;100262.84;5033128;28;20036;-75
2021/12/01 04:11:55;;;;;;;6.47;4.17;;;;;;;0.18;85.22;100261.41;5033551;28;20025;-75
2021/12/01 04:14:21;;;;;;;8.07;4.50;;;;;;;0.23;85.69;100270.25;5033276;28;20385;-76
2021/12/01 04:16:47;;;;;;;6.53;4.10;;;;;;;0.33;85.84;100271.84;5033125;28;20041;-76
2021/12/01 04:19:12;;;;;;;6.90;4.33;;;;;;;0.29;86.88;100274.91;5031692;28;20036;-75
2021/12/01 04:21:39;;;;;;;8.60;3.90;;;;;;;0.31;86.30;100273.38;5033723;28;20126;-75
2021/12/01 04:24:05;;;;;;;7.00;4.30;;;;;;;0.31;85.24;100275.91;5053262;28;20036;-73
2021/12/01 04:26:33;;;;;;;5.87;3.80;;;;;;;0.25;85.04;100275.44;5045418;28;20156;-78
2021/12/01 04:28:59;;;;;;;6.40;4.20;;;;;;;0.21;84.94;100270.91;5033329;28;20029;-75
2021/12/01 04:31:26;;;;;;;7.27;4.23;;;;;;;0.19;85.12;100267.38;5032706;28;20093;-73
2021/12/01 04:33:52;;;;;;;10.40;4.90;;;;;;;-0.13;85.62;100212.56;5031631;28;20027;-76
2021/12/01 04:36:18;;;;;;;5.87;3.93;;;;;;;0.14;85.23;100262.84;5032505;28;20108;-75
2021/12/01 04:38:45;;;;;;;9.80;4.67;;;;;;;0.09;84.95;100250.59;5032281;28;20034;-77
2021/12/01 04:41:13;;;;;;;7.07;4.00;;;;;;;0.20;84.83;100270.03;5040844;28;20102;-73
2021/12/01 04:43:39;;;;;;;5.50;3.97;;;;;;;0.30;84.78;100269.09;5043824;28;20075;-76
2021/12/01 04:46:05;;;;;;;6.47;4.17;;;;;;;0.30;84.40;100272.50;5032891;28;20108;-79
2021/12/01 04:48:31;;;;;;;5.77;4.10;;;;;;;0.35;83.68;100275.38;5032160;28;20148;-74
2021/12/01 04:50:57;;;;;;;7.17;5.13;;;;;;;0.36;84.89;100272.03;5032475;28;20025;-79
2021/12/01 04:53:25;;;;;;;9.93;6.07;;;;;;;0.39;85.29;100272.28;5032502;28;20567;-75
2021/12/01 04:55:51;;;;;;;8.13;5.07;;;;;;;0.42;84.76;100264.88;5032300;28;20048;-76
2021/12/01 04:58:16;;;;;;;9.97;5.93;;;;;;;0.37;84.03;100250.09;5032959;28;20033;-78
2021/12/01 05:00:42;;;;;;;11.43;5.50;;;;;;;0.37;84.91;100258.59;5032524;28;20088;-70
2021/12/01 05:03:07;;;;;;;6.47;4.57;;;;;;;0.21;84.83;100250.59;5031995;28;20055;-76
2021/12/01 05:05:33;;;;;;;6.77;4.47;;;;;;;0.31;85.17;100273.38;5032233;28;20394;-75
2021/12/01 05:07:58;;;;;;;9.23;5.63;;;;;;;0.35;85.29;100275.38;5032091;28;20104;-75
2021/12/01 05:10:24;;;;;;;7.63;5.43;;;;;;;0.24;84.96;100261.88;5032073;28;20033;-75
2021/12/01 05:12:50;;;;;;;10.90;6.77;;;;;;;0.14;85.91;100245.06;5032187;28;20026;-73
2021/12/01 05:15:15;;;;;;;10.37;6.50;;;;;;;0.31;86.70;100276.81;5032067;28;20380;-74
2021/12/01 05:17:41;;;;;;;8.43;5.97;;;;;;;0.36;87.20;100277.13;5031786;28;20108;-72
2021/12/01 05:20:11;;;;;;;9.33;5.87;;;;;;;0.39;87.69;100274.84;5031958;28;20034;-74
2021/12/01 05:22:37;;;;;;;11.43;5.80;;;;;;;0.38;87.80;100265.44;5031874;28;20047;-75
2021/12/01 05:25:03;;;;;;;9.60;5.40;;;;;;;0.38;87.14;100260.34;5032462;28;20034;-70
2021/12/01 05:27:29;;;;;;;8.57;6.00;;;;;;;0.41;86.67;100267.31;5051934;28;20056;-77
2021/12/01 05:29:58;;;;;;;8.37;6.00;;;;;;;0.51;87.01;100277.38;5051644;28;20033;-75
2021/12/01 05:32:24;;;;;;;8.80;6.03;;;;;;;0.30;87.32;100225.91;5051688;28;20514;-72
2021/12/01 05:34:50;;;;;;;7.90;5.77;;;;;;;0.42;86.37;100236.94;5049707;28;20076;-73
2021/12/01 05:37:15;;;;;;;9.30;5.67;;;;;;;0.40;86.33;100248.66;5049116;28;20115;-72
2021/12/01 05:39:44;;;;;;;8.50;6.00;;;;;;;0.18;86.49;100218.25;5051466;28;20033;-70
2021/12/01 05:42:12;;;;;;;6.28;4.60;;;;;;;0.07;86.70;100214.91;5051569;28;20039;-73
2021/12/01 05:44:38;;;;;;;10.73;7.27;;;;;;;0.19;86.97;100247.06;5050569;28;20029;-71
2021/12/01 05:47:03;;;;;;;30.93;23.73;;;;;;;-0.01;87.77;100206.72;5048924;28;20922;-73
2021/12/01 05:49:29;;;;;;;36.43;24.87;;;;;;;0.31;87.49;100275.91;5050696;28;20516;-72
2021/12/01 05:51:57;;;;;;;13.93;9.10;;;;;;;0.36;87.38;100261.88;5051022;28;20040;-72
2021/12/01 05:54:23;;;;;;;10.30;6.80;;;;;;;0.39;86.18;100258.72;5051386;28;20464;-73
2021/12/01 05:56:48;;;;;;;12.60;8.20;;;;;;;0.11;85.96;100206.78;5050960;28;20056;-73
2021/12/01 05:59:14;;;;;;;9.90;6.60;;;;;;;0.50;85.43;100262.94;5048893;28;20070;-72
2021/12/01 06:01:39;;;;;;;8.57;5.30;;;;;;;0.47;85.43;100265.22;5051291;28;20124;-73
2021/12/01 06:04:04;;;;;;;8.03;5.47;;;;;;;0.53;85.83;100268.22;5050440;28;20467;-73
2021/12/01 06:06:31;;;;;;;10.20;5.70;;;;;;;0.50;86.47;100265.47;5051144;28;20475;-73
2021/12/01 06:08:57;;;;;;;9.90;6.33;;;;;;;-0.06;87.81;100177.59;5050993;28;20025;-73
2021/12/01 06:11:23;;;;;;;10.70;6.63;;;;;;;0.30;88.84;100256.38;5051032;28;20036;-73
2021/12/01 06:13:52;;;;;;;9.27;6.00;;;;;;;0.25;88.62;100273.81;5040432;28;20090;-73
2021/12/01 06:16:22;;;;;;;9.48;5.82;;;;;;;0.40;88.68;100299.47;5030620;28;20033;-73
2021/12/01 06:18:48;;;;;;;7.32;4.78;;;;;;;0.53;89.50;100300.38;5030296;28;20064;-73
2021/12/01 06:21:13;;;;;;;9.67;5.33;;;;;;;0.50;88.30;100306.13;5030302;28;20021;-73
2021/12/01 06:23:39;;;;;;;8.90;5.27;;;;;;;0.32;88.71;100314.13;5030248;28;20033;-73
2021/12/01 06:26:04;;;;;;;10.20;6.33;;;;;;;0.50;88.13;100305.22;5030437;28;20052;-73
2021/12/01 06:28:30;;;;;;;8.70;5.90;;;;;;;0.53;86.85;100302.91;5029903;28;20100;-73
2021/12/01 06:30:55;;;;;;;8.57;5.80;;;;;;;0.54;86.93;100297.06;5030650;28;20487;-73
2021/12/01 06:33:21;;;;;;;9.87;5.80;;;;;;;0.70;86.71;100301.59;5030498;28;20033;-73
2021/12/01 06:35:51;;;;;;;7.43;5.40;;;;;;;0.52;85.91;100248.66;5030409;28;20029;-73
2021/12/01 06:38:18;;;;;;;10.27;5.57;;;;;;;0.88;85.71;100275.00;5030645;28;20105;-73
2021/12/01 06:40:44;;;;;;;15.03;6.10;;;;;;;0.92;86.45;100292.25;5030317;28;20034;-73
2021/12/01 06:43:10;;;;;;;9.13;5.83;;;;;;;0.92;87.20;100250.69;5030737;28;20033;-73
2021/12/01 06:45:35;;;;;;;10.00;5.87;;;;;;;1.25;86.24;100289.47;5031028;28;20025;-73
2021/12/01 06:48:01;;;;;;;11.00;6.60;;;;;;;1.20;86.53;100261.16;5030975;28;20029;-73
2021/12/01 06:50:26;;;;;;;10.43;6.73;;;;;;;1.39;86.00;100278.59;5030670;28;20438;-73
2021/12/01 06:52:52;;;;;;;10.80;7.07;;;;;;;1.54;84.71;100280.47;5030677;28;20051;-73
2021/12/01 06:55:20;;;;;;;9.97;6.40;;;;;;;1.50;83.88;100265.78;5029802;28;20072;-73
2021/12/01 06:57:45;;;;;;;8.70;5.40;;;;;;;1.67;83.70;100284.75;5029689;28;20022;-73
2021/12/01 07:00:14;;;;;;;9.30;5.63;;;;;;;1.47;85.24;100237.56;5029772;28;20025;-73
2021/12/01 07:02:39;;;;;;;9.43;5.17;;;;;;;1.76;83.79;100286.25;5030005;28;20045;-73
2021/12/01 07:05:06;;;;;;;8.90;5.83;;;;;;;1.63;85.15;100268.38;5035957;28;20060;-73
2021/12/01 07:07:31;;;;;;;9.37;5.20;;;;;;;1.50;83.45;100263.22;5030131;28;20022;-73
2021/12/01 07:09:57;;;;;;;7.73;5.00;;;;;;;1.65;82.99;100299.03;5029512;28;20465;-73
2021/12/01 07:12:23;;;;;;;9.37;5.53;;;;;;;1.41;83.60;100244.00;5029819;28;20029;-74
2021/12/01 07:14:49;;;;;;;9.83;6.10;;;;;;;1.72;84.49;100293.56;5030723;28;20479;-73
2021/12/01 07:17:14;;;;;;;8.80;6.20;;;;;;;1.82;84.18;100295.09;5016926;28;20021;-73
2021/12/01 07:19:40;;;;;;;11.27;7.60;;;;;;;1.77;84.92;100290.59;5033348;28;20075;-74
2021/12/01 07:22:05;;;;;;;12.57;8.30;;;;;;;1.68;86.00;100267.03;5033676;28;20467;-73
2021/12/01 07:24:31;;;;;;;13.10;8.30;;;;;;;1.90;86.92;100286.34;5033605;28;20187;-73
2021/12/01 07:26:57;;;;;;;8.53;5.43;;;;;;;1.83;87.28;100291.78;5033002;28;20037;-73
2021/12/01 07:29:25;;;;;;;8.43;5.43;;;;;;;1.99;87.69;100293.72;5043265;28;20117;-74
2021/12/01 07:31:51;;;;;;;8.63;5.53;;;;;;;2.13;86.10;100315.94;5042426;28;20053;-74
2021/12/01 07:34:16;;;;;;;9.23;5.33;;;;;;;2.17;84.40;100306.81;5033304;28;22056;-72
2021/12/01 07:36:42;;;;;;;8.30;5.73;;;;;;;2.15;83.83;100285.47;5035307;28;20036;-74
2021/12/01 07:39:09;;;;;;;10.67;5.27;;;;;;;2.37;81.90;100291.22;5032320;28;20025;-74
2021/12/01 07:41:35;;;;;;;8.75;5.47;;;;;;;2.31;80.33;100256.81;5031890;28;20587;-74
2021/12/01 07:44:00;;;;;;;9.05;6.07;;;;;;;2.69;80.31;100284.81;5033014;28;20026;-74
2021/12/01 07:46:26;;;;;;;8.23;5.28;;;;;;;2.74;79.51;100293.66;5032634;28;20037;-74
2021/12/01 07:48:52;;;;;;;9.27;6.95;;;;;;;2.77;79.43;100290.41;5031192;28;20037;-73
2021/12/01 07:51:17;;;;;;;10.93;5.88;;;;;;;2.87;80.47;100290.22;5033698;28;20072;-73
2021/12/01 07:53:43;;;;;;;9.70;6.20;;;;;;;2.77;80.31;100230.88;5033355;28;20037;-73
2021/12/01 07:56:08;;;;;;;10.30;6.25;;;;;;;3.03;78.66;100256.41;5033525;28;20456;-74
2021/12/01 07:58:34;;;;;;;8.57;6.00;;;;;;;3.18;79.27;100268.38;5016106;28;20033;-74
2021/12/01 08:00:59;;;;;;;9.07;5.90;;;;;;;3.28;78.37;100268.16;5014688;28;20110;-74
2021/12/01 08:03:45;;;;;;;7.80;5.68;;;;;;;3.35;77.87;100270.31;5050843;28;20518;-74
2021/12/01 08:06:10;;;;;;;8.55;4.75;;;;;;;3.28;77.96;100236.63;5049881;28;20051;-74
2021/12/01 08:08:36;;;;;;;8.25;5.10;;;;;;;3.35;79.93;100267.75;5051548;28;20037;-75
2021/12/01 08:11:01;;;;;;;7.35;4.57;;;;;;;3.45;79.20;100258.09;5070765;28;20494;-74
2021/12/01 08:13:26;;;;;;;8.07;5.50;;;;;;;3.72;79.58;100274.25;5070570;28;20600;-74
2021/12/01 08:15:52;;;;;;;6.70;4.75;;;;;;;3.93;80.36;100284.00;5070597;28;20051;-74
2021/12/01 08:18:18;;;;;;;11.57;5.25;;;;;;;4.12;78.50;100289.41;5053926;28;20060;-74
2021/12/01 08:20:44;;;;;;;6.13;4.28;;;;;;;3.83;74.84;100234.03;5050325;28;20025;-74
2021/12/01 08:23:09;;;;;;;6.88;3.80;;;;;;;4.33;70.80;100271.03;5048545;28;20148;-74
2021/12/01 08:25:36;;;;;;;5.30;3.10;;;;;;;4.47;67.09;100261.63;5049708;28;20514;-75
2021/12/01 08:28:02;;;;;;;12.05;2.70;;;;;;;4.65;66.29;100261.81;5033771;28;20113;-72
2021/12/01 08:30:28;;;;;;;5.30;3.30;;;;;;;4.74;66.52;100231.63;5066858;28;20052;-74
2021/12/01 08:32:54;;;;;;;5.07;3.10;;;;;;;4.83;66.94;100221.03;5062684;28;20064;-73
2021/12/01 08:35:20;;;;;;;4.65;2.92;;;;;;;5.25;65.77;100252.38;5022268;28;20085;-77
2021/12/01 08:37:46;;;;;;;6.28;2.60;;;;;;;5.33;64.67;100258.78;5012858;28;20470;-75
2021/12/01 08:40:14;;;;;;;4.32;2.35;;;;;;;5.35;64.59;100244.38;5011305;28;20025;-76
2021/12/01 08:42:40;;;;;;;4.43;2.20;;;;;;;5.37;64.33;100246.16;5011277;28;20025;-76
2021/12/01 08:45:06;;;;;;;3.10;1.80;;;;;;;5.31;64.09;100241.59;5010889;28;20116;-78
2021/12/01 08:47:31;;;;;;;4.07;1.60;;;;;;;5.43;63.89;100260.19;5010957;28;20543;-78
2021/12/01 08:49:58;;;;;;;2.80;1.58;;;;;;;5.46;65.23;100260.31;5009949;28;20036;-76
2021/12/01 08:52:23;;;;;;;3.42;2.00;;;;;;;5.37;66.63;100220.53;5011093;28;20036;-74
2021/12/01 08:54:49;;;;;;;2.97;1.98;;;;;;;5.48;64.51;100227.13;5015212;28;20021;-74
2021/12/01 08:57:14;;;;;;;85.10;42.53;;;;;;;5.51;65.17;100217.94;5013448;28;20073;-75
2021/12/01 08:59:42;;;;;;;3.22;2.05;;;;;;;5.67;65.23;100218.75;5028186;28;20036;-72
2021/12/01 09:02:07;;;;;;;4.13;2.28;;;;;;;5.88;65.70;100229.25;5012286;28;20034;-77
2021/12/01 09:04:33;;;;;;;5.72;3.72;;;;;;;6.02;67.32;100239.31;5011966;28;20029;-74
2021/12/01 09:06:58;;;;;;;5.40;4.05;;;;;;;6.13;65.98;100225.38;5013073;28;20033;-75
2021/12/01 09:09:24;;;;;;;4.75;2.38;;;;;;;6.14;65.01;100232.28;5026478;28;20504;-73
2021/12/01 09:11:52;;;;;;;5.05;3.22;;;;;;;6.29;63.81;100233.06;5013705;28;20453;-73
2021/12/01 09:14:37;;;;;;;4.18;1.88;;;;;;;6.10;64.62;100233.78;4990297;28;20173;-71
2021/12/01 09:17:03;;;;;;;2.72;1.80;;;;;;;6.22;64.68;100233.56;4990082;28;20054;-79
2021/12/01 09:19:28;;;;;;;3.17;1.80;;;;;;;6.48;65.65;100239.97;4988974;28;20520;-77
2021/12/01 09:21:54;;;;;;;4.05;2.00;;;;;;;6.62;65.69;100232.97;4989611;28;20022;-77
2021/12/01 09:24:21;;;;;;;3.05;1.88;;;;;;;6.73;65.02;100230.03;4989360;28;20046;-76
2021/12/01 09:26:48;;;;;;;3.75;2.15;;;;;;;6.42;63.61;100198.66;4989333;28;20113;-77
2021/12/01 09:29:14;;;;;;;2.58;1.40;;;;;;;6.45;64.11;100237.25;4989209;28;20089;-76
2021/12/01 09:31:41;;;;;;;2.92;1.85;;;;;;;6.49;65.85;100235.72;4988381;28;20516;-75
2021/12/01 09:34:08;;;;;;;4.70;2.20;;;;;;;6.48;67.15;100222.03;4987028;28;20085;-74
2021/12/01 09:36:33;;;;;;;3.97;2.30;;;;;;;6.45;67.17;100208.16;4989669;28;20069;-74
2021/12/01 09:39:00;;;;;;;8.00;2.97;;;;;;;6.46;65.34;100177.47;4988666;28;20037;-73
2021/12/01 09:41:26;;;;;;;3.38;2.25;;;;;;;6.45;67.03;100169.72;4989491;28;20104;-73
2021/12/01 09:43:51;;;;;;;6.03;1.90;;;;;;;6.56;67.21;100198.44;4990213;28;20030;-73
2021/12/01 09:46:17;;;;;;;2.47;1.55;;;;;;;6.64;66.66;100199.69;5005554;28;20068;-82
2021/12/01 09:48:44;;;;;;;4.18;2.10;;;;;;;6.81;69.23;100174.84;5018492;28;20149;-78
2021/12/01 09:51:11;;;;;;;3.70;2.13;;;;;;;7.09;66.21;100176.13;5022672;28;20058;-74
2021/12/01 09:53:37;;;;;;;3.00;1.80;;;;;;;7.23;66.40;100187.06;5010073;28;20073;-76
2021/12/01 09:56:03;;;;;;;3.88;1.80;;;;;;;7.04;66.69;100167.34;5012415;28;20089;-72
2021/12/01 09:58:33;;;;;;;4.68;2.10;;;;;;;7.31;65.58;100198.53;5012183;28;20124;-71
2021/12/01 10:01:08;;;;;;;3.17;1.52;;;;;;;7.42;64.27;100194.75;5023920;28;20037;-72
2021/12/01 10:03:35;;;;;;;4.95;1.92;;;;;;;7.54;64.84;100217.56;5007607;28;20028;-72
2021/12/01 10:06:09;;;;;;;2.92;1.70;;;;;;;7.59;64.75;100199.78;5009134;28;20053;-73
2021/12/01 10:08:39;;;;;;;5.28;2.00;;;;;;;7.61;65.57;100203.28;5010861;28;20030;-72
2021/12/01 10:11:17;;;;;;;;;;;;;;;7.74;64.99;100199.59;5012528;28;20137;-74
2021/12/01 10:13:49;;;;;;;5.72;2.05;;;;;;;7.91;65.20;100188.34;5011302;28;20288;-73
2021/12/01 10:16:16;;;;;;;3.05;1.08;;;;;;;8.04;63.80;100184.59;5014144;28;20026;-73
2021/12/01 10:18:47;;;;;;;3.38;1.75;;;;;;;8.13;64.44;100176.41;5010369;28;20066;-72
2021/12/01 10:21:18;;;;;;;3.67;1.70;;;;;;;8.23;63.36;100188.81;5010436;28;20030;-74
2021/12/01 10:23:50;;;;;;;3.97;2.20;;;;;;;8.20;64.02;100163.00;5010557;28;20100;-74
2021/12/01 10:26:26;;;;;;;2.28;1.40;;;;;;;8.19;62.88;100158.66;5010534;28;20045;-74
2021/12/01 10:28:54;;;;;;;2.45;1.42;;;;;;;8.38;63.29;100164.56;5009846;28;20030;-74
2021/12/01 10:31:52;;;;;;;4.72;2.67;;;;;;;8.61;63.80;100156.91;5020339;28;20030;-75
2021/12/01 10:34:23;;;;;;;2.53;1.63;;;;;;;8.48;61.13;100166.72;4954630;29;20086;-73
2021/12/01 10:37:05;;;;;;;3.95;1.63;;;;;;;8.28;62.25;100136.72;4950709;29;20032;-74
2021/12/01 10:39:30;;;;;;;2.45;1.40;;;;;;;8.65;63.13;100162.25;4955812;28;20532;-72
2021/12/01 10:42:03;;;;;;;2.05;1.35;;;;;;;8.60;62.57;100150.00;4926935;28;20042;-72
2021/12/01 10:44:28;;;;;;;3.13;1.30;;;;;;;8.67;61.85;100154.59;4969089;28;20037;-71
2021/12/01 10:46:55;;;;;;;2.70;1.73;;;;;;;8.76;62.17;100154.97;4966954;28;20027;-71
2021/12/01 10:49:35;;;;;;;1.95;1.30;;;;;;;8.39;62.63;100105.44;4971643;28;20043;-71
2021/12/01 10:52:00;;;;;;;2.42;1.55;;;;;;;8.48;61.01;100104.97;4966220;28;20038;-68
2021/12/01 10:54:26;;;;;;;2.38;1.40;;;;;;;8.78;63.36;100147.28;4966121;28;20031;-73
2021/12/01 10:57:20;;;;;;;2.58;1.23;;;;;;;9.05;63.14;100152.63;4954131;28;20037;-76
2021/12/01 10:59:48;;;;;;;2.70;1.60;;;;;;;9.23;63.41;100136.97;4970280;28;20026;-73
2021/12/01 11:02:15;;;;;;;5.90;2.55;;;;;;;9.37;62.41;100147.78;4954223;28;20066;-73
2021/12/01 11:04:48;;;;;;;3.80;1.60;;;;;;;9.43;61.60;100150.56;4972603;28;20043;-74
2021/12/01 11:07:30;;;;;;;5.47;2.25;;;;;;;9.31;62.30;100144.97;4972362;28;20523;-74
2021/12/01 11:10:12;;;;;;;3.10;1.73;;;;;;;9.21;62.60;100138.63;4970440;28;20079;-74
2021/12/01 11:12:38;;;;;;;3.75;1.70;;;;;;;9.35;62.37;100144.28;5034408;28;20036;-71
2021/12/01 11:15:41;;;;;;;5.25;2.00;;;;;;;9.42;62.64;100138.53;5033916;28;20030;-72
2021/12/01 11:18:09;;;;;;;3.75;1.95;;;;;;;9.51;63.31;100141.44;5003574;28;20504;-70
2021/12/01 11:20:40;;;;;;;4.15;1.40;;;;;;;9.48;62.49;100125.00;5009856;28;20068;-73
2021/12/01 11:23:34;;;;;;;4.75;1.70;;;;;;;9.60;62.85;100121.97;5011020;28;20125;-72
2021/12/01 11:26:08;;;;;;;2.42;1.52;;;;;;;9.60;61.79;100119.41;5010301;28;20038;-72
2021/12/01 11:28:42;;;;;;;4.90;1.70;;;;;;;9.47;62.25;100087.16;4991928;28;20088;-72
2021/12/01 11:31:12;;;;;;;3.13;1.65;;;;;;;9.75;61.80;100116.50;5010751;28;20555;-74
2021/12/01 11:33:43;;;;;;;3.83;1.67;;;;;;;9.68;61.83;100115.38;5011812;28;20049;-72
2021/12/01 11:36:11;;;;;;;3.22;1.73;;;;;;;9.73;62.47;100118.13;5011655;28;20038;-74
2021/12/01 11:38:36;;;;;;;4.72;1.95;;;;;;;9.67;62.26;100077.53;4980059;28;20100;-75
2021/12/01 11:41:05;;;;;;;5.15;1.70;;;;;;;9.95;62.10;100106.84;4989255;28;20038;-75